createdAt,value
2023-02-25T00:02:40.940Z,86.83
2023-02-25T00:07:45.425Z,87.37
2023-02-25T00:12:53.270Z,87.02
2023-02-25T00:17:56.289Z,86.95
2023-02-25T00:23:18.825Z,87.18
2023-02-25T00:28:36.135Z,87.01
2023-02-25T00:33:44.026Z,87.07
2023-02-25T00:38:48.524Z,86.98
2023-02-25T00:43:56.639Z,87.04
2023-02-25T00:49:00.613Z,86.79
2023-02-25T00:54:03.423Z,86.91
2023-02-25T00:59:08.302Z,86.88
2023-02-25T01:04:11.189Z,86.74
2023-02-25T01:09:16.432Z,86.77
2023-02-25T01:14:21.750Z,86.68
2023-02-25T01:19:27.405Z,86.49
2023-02-25T01:24:37.367Z,86.55
2023-02-25T01:29:42.029Z,86.84
2023-02-25T01:34:44.396Z,86.90
2023-02-25T01:39:46.665Z,86.91
2023-02-25T01:45:38.520Z,86.91
2023-02-25T01:50:59.427Z,86.85
2023-02-25T01:56:03.580Z,86.80
2023-02-25T02:01:14.774Z,86.91
2023-02-25T02:06:22.745Z,86.86
2023-02-25T02:11:25.342Z,86.65
2023-02-25T02:16:47.181Z,86.64
2023-02-25T02:22:01.038Z,86.43
2023-02-25T02:27:19.266Z,85.94
2023-02-25T02:32:48.538Z,85.78
2023-02-25T02:38:14.639Z,85.25
2023-02-25T02:43:45.896Z,85.32
2023-02-25T02:49:12.545Z,85.20
2023-02-25T02:54:18.187Z,85.19
2023-02-25T02:59:28.909Z,85.34
2023-02-25T03:04:37.919Z,85.32
2023-02-25T03:09:54.310Z,85.42
2023-02-25T03:15:14.768Z,85.61
2023-02-25T03:20:30.750Z,85.99
2023-02-25T03:25:38.341Z,86.05
2023-02-25T03:30:48.560Z,86.28
2023-02-25T03:35:59.432Z,86.43
2023-02-25T03:41:14.084Z,86.72
2023-02-25T03:46:20.214Z,86.88
2023-02-25T03:51:31.391Z,87.18
2023-02-25T03:56:44.366Z,87.33
2023-02-25T04:01:55.596Z,87.48
2023-02-25T04:07:10.098Z,87.46
2023-02-25T04:12:13.135Z,87.56
2023-02-25T04:17:20.133Z,87.24
2023-02-25T04:22:23.479Z,87.21
2023-02-25T04:27:27.346Z,87.26
2023-02-25T04:32:38.747Z,87.20
2023-02-25T04:37:43.210Z,87.13
2023-02-25T04:42:45.991Z,87.15
2023-02-25T04:47:51.025Z,87.18
2023-02-25T04:52:54.329Z,87.61
2023-02-25T04:57:56.920Z,87.63
2023-02-25T05:02:59.103Z,87.58
2023-02-25T05:08:28.743Z,87.69
2023-02-25T05:13:31.882Z,87.58
2023-02-25T05:18:51.267Z,87.96
2023-02-25T05:23:54.391Z,88.28
2023-02-25T05:28:58.841Z,88.46
2023-02-25T05:34:02.436Z,88.75
2023-02-25T05:39:08.416Z,88.82
2023-02-25T05:44:11.454Z,88.73
2023-02-25T05:49:14.227Z,88.93
2023-02-25T05:54:19.032Z,88.90
2023-02-25T05:59:21.256Z,88.96
2023-02-25T06:04:23.657Z,89.07
2023-02-25T06:09:27.862Z,88.77
2023-02-25T06:14:32.991Z,88.92
2023-02-25T06:19:35.861Z,88.85
2023-02-25T06:24:41.787Z,88.67
2023-02-25T06:29:49.985Z,88.88
2023-02-25T06:35:07.969Z,89.07
2023-02-25T06:40:14.506Z,88.93
2023-02-25T06:45:17.104Z,88.70
2023-02-25T06:50:23.152Z,88.67
2023-02-25T06:55:27.113Z,88.22
2023-02-25T07:00:31.733Z,87.67
2023-02-25T07:05:38.111Z,87.37
2023-02-25T07:10:41.939Z,87.32
2023-02-25T07:15:45.630Z,86.82
2023-02-25T07:20:49.095Z,86.22
2023-02-25T07:25:51.266Z,87.04
2023-02-25T07:30:54.345Z,87.49
2023-02-25T07:35:57.800Z,88.02
2023-02-25T07:41:11.497Z,88.30
2023-02-25T07:46:14.423Z,88.37
2023-02-25T07:51:20.163Z,88.25
2023-02-25T07:56:24.261Z,88.24
2023-02-25T08:01:34.036Z,88.21
2023-02-25T08:06:38.292Z,88.01
2023-02-25T08:11:41.668Z,87.80
2023-02-25T08:16:45.045Z,87.36
2023-02-25T08:21:47.956Z,86.91
2023-02-25T08:26:50.888Z,86.83
2023-02-25T08:31:57.991Z,86.60
2023-02-25T08:37:04.649Z,86.64
2023-02-25T08:42:07.726Z,85.94
2023-02-25T08:47:10.120Z,85.33
2023-02-25T08:52:14.067Z,85.26
2023-02-25T08:57:17.919Z,84.62
2023-02-25T09:02:21.837Z,83.53
2023-02-25T09:07:24.585Z,83.39
2023-02-25T09:12:32.397Z,82.74
2023-02-25T09:17:36.429Z,81.88
2023-02-25T09:22:42.767Z,81.79
2023-02-25T09:27:45.755Z,81.50
2023-02-25T09:32:48.038Z,81.58
2023-02-25T09:37:50.438Z,81.54
2023-02-25T09:43:37.896Z,81.58
2023-02-25T09:49:03.571Z,81.69
2023-02-25T09:54:42.488Z,81.72
2023-02-25T09:59:46.732Z,81.44
2023-02-25T10:05:33.409Z,81.48
2023-02-25T10:10:57.568Z,81.98
2023-02-25T10:16:26.431Z,82.06
2023-02-25T10:21:54.116Z,81.77
2023-02-25T10:27:03.710Z,81.72
2023-02-25T10:32:22.123Z,82.01
2023-02-25T10:37:35.298Z,82.31
2023-02-25T10:42:38.742Z,82.21
2023-02-25T10:47:46.245Z,82.12
2023-02-25T10:53:16.387Z,81.82
2023-02-25T10:58:46.896Z,81.23
2023-02-25T11:03:48.906Z,80.72
2023-02-25T11:08:54.855Z,79.52
2023-02-25T11:14:10.083Z,77.63
2023-02-25T11:19:27.836Z,78.53
2023-02-25T11:24:34.248Z,79.15
2023-02-25T11:29:43.716Z,79.79
2023-02-25T11:35:08.173Z,79.95
2023-02-25T11:40:23.983Z,78.90
2023-02-25T11:45:29.977Z,78.06
2023-02-25T11:50:45.507Z,77.26
2023-02-25T11:55:56.794Z,78.28
2023-02-25T12:01:16.944Z,78.67
2023-02-25T12:06:47.675Z,78.30
2023-02-25T12:12:29.205Z,78.78
2023-02-25T12:18:38.432Z,78.95
2023-02-25T12:23:56.047Z,79.25
2023-02-25T12:29:53.408Z,78.69
2023-02-25T12:35:35.587Z,77.61
2023-02-25T12:41:22.980Z,77.31
2023-02-25T12:46:47.962Z,77.98
2023-02-25T12:52:42.242Z,77.73
2023-02-25T12:58:10.941Z,79.42
2023-02-25T13:04:17.882Z,80.89
2023-02-25T13:10:25.895Z,81.64
2023-02-25T13:15:40.795Z,81.59
2023-02-25T13:21:08.355Z,82.33
2023-02-25T13:26:28.147Z,82.58
2023-02-25T13:31:52.050Z,82.84
2023-02-25T13:37:13.012Z,82.12
2023-02-25T13:42:27.522Z,82.29
2023-02-25T13:48:11.474Z,82.44
2023-02-25T13:53:48.966Z,82.72
2023-02-25T13:59:21.361Z,82.93
2023-02-25T14:05:14.593Z,82.70
2023-02-25T14:10:50.032Z,82.65
2023-02-25T14:16:07.707Z,82.64
2023-02-25T14:21:53.318Z,82.79
2023-02-25T14:27:26.860Z,83.13
2023-02-25T14:32:52.728Z,83.08
2023-02-25T14:37:56.047Z,82.51
2023-02-25T14:43:21.743Z,82.10
2023-02-25T14:48:42.106Z,81.83
2023-02-25T14:54:19.781Z,82.03
2023-02-25T14:59:55.365Z,82.33
2023-02-25T15:05:42.375Z,82.80
2023-02-25T15:10:50.441Z,83.34
2023-02-25T15:16:20.149Z,83.48
2023-02-25T15:21:41.686Z,83.38
2023-02-25T15:26:48.604Z,83.77
2023-02-25T15:32:22.018Z,83.97
2023-02-25T15:37:33.892Z,84.39
2023-02-25T15:42:46.332Z,84.57
2023-02-25T15:47:50.922Z,84.91
2023-02-25T15:52:57.794Z,85.28
2023-02-25T15:58:01.031Z,85.21
2023-02-25T16:03:35.363Z,85.44
2023-02-25T16:08:47.056Z,85.62
2023-02-25T16:13:50.559Z,85.65
2023-02-25T16:18:55.749Z,85.72
2023-02-25T16:24:00.187Z,85.75
2023-02-25T16:29:23.652Z,85.94
2023-02-25T16:35:09.174Z,85.79
2023-02-25T16:40:46.028Z,85.60
2023-02-25T16:46:00.273Z,85.82
2023-02-25T16:51:20.241Z,85.79
2023-02-25T16:56:25.547Z,85.90
2023-02-25T17:01:30.629Z,86.12
2023-02-25T17:06:33.278Z,85.85
2023-02-25T17:11:35.433Z,85.97
2023-02-25T17:16:43.653Z,85.74
2023-02-25T17:21:53.950Z,85.47
2023-02-25T17:26:57.351Z,85.44
2023-02-25T17:31:59.880Z,85.38
2023-02-25T17:37:06.221Z,85.26
2023-02-25T17:42:39.738Z,85.39
2023-02-25T17:47:43.873Z,85.13
2023-02-25T17:52:51.614Z,84.85
2023-02-25T17:57:58.833Z,84.79
2023-02-25T18:03:30.793Z,84.78
2023-02-25T18:08:53.631Z,85.03
2023-02-25T18:13:55.877Z,85.08
2023-02-25T18:19:00.012Z,85.03
2023-02-25T18:24:10.025Z,84.79
2023-02-25T18:29:12.813Z,84.53
2023-02-25T18:34:25.758Z,84.71
2023-02-25T18:39:29.238Z,84.77
2023-02-25T18:44:31.903Z,84.51
2023-02-25T18:49:34.487Z,84.45
2023-02-25T18:54:38.623Z,84.46
2023-02-25T18:59:41.920Z,84.32
2023-02-25T19:04:46.388Z,84.36
2023-02-25T19:09:54.512Z,84.39
2023-02-25T19:15:12.766Z,84.18
2023-02-25T19:20:21.312Z,84.25
2023-02-25T19:25:29.683Z,84.03
2023-02-25T19:30:37.583Z,84.24
2023-02-25T19:35:43.839Z,84.64
2023-02-25T19:40:48.888Z,84.50
2023-02-25T19:45:54.553Z,84.43
2023-02-25T19:50:56.908Z,84.76
2023-02-25T19:56:00.377Z,85.11
2023-02-25T20:01:09.201Z,85.12
2023-02-25T20:06:16.290Z,85.49
2023-02-25T20:11:21.130Z,85.40
2023-02-25T20:16:43.790Z,85.48
2023-02-25T20:21:47.170Z,85.79
2023-02-25T20:26:51.365Z,85.85
2023-02-25T20:31:55.738Z,86.37
2023-02-25T20:37:19.439Z,86.53
2023-02-25T20:42:29.468Z,86.71
2023-02-25T20:47:37.667Z,86.76
2023-02-25T20:52:42.310Z,86.72
2023-02-25T20:57:44.723Z,87.19
2023-02-25T21:02:48.040Z,87.16
2023-02-25T21:07:51.048Z,87.29
2023-02-25T21:12:59.377Z,87.24
2023-02-25T21:18:04.646Z,87.17
2023-02-25T21:23:07.233Z,87.56
2023-02-25T21:28:10.167Z,87.30
2023-02-25T21:33:16.775Z,87.56
2023-02-25T21:38:19.793Z,87.99
2023-02-25T21:43:24.288Z,87.59
2023-02-25T21:48:28.453Z,87.80
2023-02-25T21:53:34.027Z,87.74
2023-02-25T21:58:36.838Z,87.95
2023-02-25T22:03:40.227Z,88.23
2023-02-25T22:08:45.641Z,88.02
2023-02-25T22:13:55.203Z,88.33
2023-02-25T22:18:58.852Z,88.72
2023-02-25T22:24:02.784Z,88.12
2023-02-25T22:29:08.801Z,88.42
2023-02-25T22:34:17.517Z,88.82
2023-02-25T22:39:28.172Z,88.57
2023-02-25T22:44:30.902Z,88.38
2023-02-25T22:49:33.676Z,88.44
2023-02-25T22:54:37.134Z,88.47
2023-02-25T22:59:39.484Z,88.36
2023-02-25T23:04:41.605Z,88.44
2023-02-25T23:09:47.464Z,88.01
2023-02-25T23:14:50.349Z,87.90
2023-02-25T23:19:59.252Z,87.89
2023-02-25T23:25:03.469Z,88.23
2023-02-25T23:30:06.619Z,87.91
2023-02-25T23:35:11.600Z,88.11
2023-02-25T23:40:15.257Z,88.01
2023-02-25T23:45:17.439Z,87.97
2023-02-25T23:50:19.363Z,87.68
2023-02-25T23:55:22.344Z,88.08
